Time;durP1;ratioP1;P1;durP2;ratioP2;P2;SDS_P1;SDS_P2;PMS_P1;PMS_P2;Temp;Humidity;BMP_temperature;BMP_pressure;BME280_temperature;BME280_humidity;BME280_pressure;Samples;Min_cycle;Max_cycle;Signal;HPM_P1;HPM_P2
2022/12/21 00:02:12;;;;;;;47.08;14.02;;;8.90;99.90;;;;;;5028788;28;20056;-66
2022/12/21 00:04:38;;;;;;;45.95;14.13;;;8.50;99.90;;;;;;5018722;28;20517;-66
2022/12/21 00:07:03;;;;;;;47.10;15.27;;;7.40;99.90;;;;;;5023291;28;20478;-66
2022/12/21 00:09:29;;;;;;;46.97;14.43;;;7.70;99.90;;;;;;5020906;28;20076;-66
2022/12/21 00:11:54;;;;;;;44.30;13.75;;;9.10;99.90;;;;;;5030271;28;20107;-66
2022/12/21 00:14:20;;;;;;;38.50;12.55;;;7.70;99.90;;;;;;5023380;28;20044;-65
2022/12/21 00:16:45;;;;;;;36.05;12.43;;;9.00;99.90;;;;;;5026302;28;20045;-65
2022/12/21 00:19:15;;;;;;;42.70;12.50;;;8.30;99.90;;;;;;5034745;28;20037;-66
2022/12/21 00:21:41;;;;;;;54.65;13.75;;;7.40;99.90;;;;;;5047103;28;20082;-66
2022/12/21 00:24:07;;;;;;;42.65;12.68;;;8.30;99.90;;;;;;5030309;28;20069;-66
2022/12/21 00:26:35;;;;;;;35.72;12.27;;;8.60;99.90;;;;;;5029225;28;20069;-65
2022/12/21 00:29:02;;;;;;;74.10;13.00;;;8.00;99.90;;;;;;5033511;28;20406;-65
2022/12/21 00:31:34;;;;;;;235.82;20.23;;;7.90;99.90;;;;;;5030137;28;20030;-65
2022/12/21 00:34:00;;;;;;;453.45;26.38;;;7.10;99.90;;;;;;5031757;28;20037;-65
2022/12/21 00:36:28;;;;;;;479.00;31.13;;;8.40;99.90;;;;;;5029245;28;20041;-65
2022/12/21 00:38:54;;;;;;;676.95;40.10;;;8.20;99.90;;;;;;5030387;28;20516;-65
2022/12/21 00:41:21;;;;;;;633.92;36.10;;;6.70;99.90;;;;;;5031183;28;20065;-65
2022/12/21 00:43:49;;;;;;;834.70;43.33;;;7.00;99.90;;;;;;5029276;28;20507;-65
2022/12/21 00:46:18;;;;;;;964.78;42.97;;;6.50;99.90;;;;;;5022155;28;20036;-65
2022/12/21 00:48:44;;;;;;;757.42;38.38;;;6.60;99.90;;;;;;5030340;28;20040;-65
2022/12/21 00:51:15;;;;;;;779.47;38.42;;;8.00;99.90;;;;;;5032060;28;20041;-65
2022/12/21 00:53:41;;;;;;;744.92;39.53;;;8.00;99.90;;;;;;5032688;28;20363;-65
2022/12/21 00:56:08;;;;;;;507.38;26.33;;;6.30;99.90;;;;;;5031225;28;20120;-65
2022/12/21 00:58:35;;;;;;;581.88;25.67;;;7.80;99.90;;;;;;5032869;28;20025;-65
2022/12/21 01:01:10;;;;;;;454.63;21.08;;;6.20;99.90;;;;;;5033477;28;20029;-65
2022/12/21 01:03:36;;;;;;;346.10;16.23;;;7.50;99.90;;;;;;5028833;28;20529;-65
2022/12/21 01:06:02;;;;;;;294.73;15.35;;;7.30;99.90;;;;;;5030923;28;20041;-65
2022/12/21 01:08:27;;;;;;;253.70;12.48;;;5.80;99.90;;;;;;5028562;28;20445;-65
2022/12/21 01:10:57;;;;;;;241.32;11.52;;;5.60;99.90;;;;;;5032835;28;20041;-65
2022/12/21 01:13:23;;;;;;;277.52;15.30;;;6.40;99.90;;;;;;5032887;28;20101;-65
2022/12/21 01:15:49;;;;;;;462.42;23.40;;;5.60;99.90;;;;;;5031206;28;20084;-65
2022/12/21 01:18:15;;;;;;;287.00;14.02;;;7.00;99.90;;;;;;5033691;28;20397;-65
2022/12/21 01:20:43;;;;;;;455.55;24.38;;;6.10;99.90;;;;;;5030344;28;20037;-65
2022/12/21 01:23:08;;;;;;;486.70;20.95;;;5.70;99.90;;;;;;5031797;28;20037;-65
2022/12/21 01:25:34;;;;;;;386.92;15.98;;;6.80;99.90;;;;;;5030349;28;20075;-65
2022/12/21 01:28:00;;;;;;;530.15;27.77;;;5.00;99.90;;;;;;5033962;28;20536;-65
2022/12/21 01:30:26;;;;;;;49.22;4.75;;;6.10;99.90;;;;;;5030557;28;20026;-65
2022/12/21 01:32:51;;;;;;;50.65;4.15;;;5.80;99.90;;;;;;5021358;28;20172;-65
2022/12/21 01:35:17;;;;;;;54.17;4.32;;;6.20;99.90;;;;;;5029234;28;20045;-65
2022/12/21 01:37:43;;;;;;;64.20;5.45;;;4.40;99.90;;;;;;5028308;28;20044;-65
2022/12/21 01:40:10;;;;;;;75.95;5.50;;;4.60;99.90;;;;;;5019509;28;20406;-65
2022/12/21 01:42:36;;;;;;;86.10;6.40;;;5.60;99.90;;;;;;5029218;28;20044;-65
2022/12/21 01:45:19;;;;;;;118.30;7.93;;;5.90;99.90;;;;;;5029459;28;20120;-65
2022/12/21 01:47:47;;;;;;;129.05;10.43;;;4.50;99.90;;;;;;5031205;28;20030;-65
2022/12/21 01:50:18;;;;;;;104.57;10.20;;;5.30;99.90;;;;;;5023836;28;20037;-65
2022/12/21 01:52:44;;;;;;;23.35;4.10;;;4.50;99.90;;;;;;5030202;28;20045;-65
2022/12/21 01:55:10;;;;;;;28.52;5.70;;;4.90;99.90;;;;;;5031322;28;20172;-65
2022/12/21 01:57:36;;;;;;;41.28;7.30;;;4.50;99.90;;;;;;5027593;28;20127;-65
2022/12/21 02:00:04;;;;;;;43.08;10.05;;;3.60;99.90;;;;;;5030184;28;20044;-65
2022/12/21 02:02:39;;;;;;;32.22;9.30;;;5.00;99.90;;;;;;5021983;28;20052;-65
2022/12/21 02:05:24;;;;;;;111.73;16.90;;;4.90;99.90;;;;;;5027333;28;20045;-65
2022/12/21 02:07:50;;;;;;;64.28;13.98;;;4.50;99.90;;;;;;5016834;28;20049;-65
2022/12/21 02:10:16;;;;;;;58.95;14.05;;;4.40;99.90;;;;;;5033637;28;20030;-65
2022/12/21 02:12:43;;;;;;;101.15;14.85;;;3.40;99.90;;;;;;5033219;28;20103;-65
2022/12/21 02:15:09;;;;;;;17.98;8.77;;;3.40;99.90;;;;;;5033482;28;20046;-65
2022/12/21 02:17:40;;;;;;;13.93;8.80;;;3.70;99.90;;;;;;5029922;28;20552;-65
2022/12/21 02:20:24;;;;;;;14.18;8.85;;;3.90;99.90;;;;;;5031974;28;20033;-65
2022/12/21 02:23:27;;;;;;;399.63;29.17;;;5.10;99.90;;;;;;5031191;28;20045;-65
2022/12/21 02:26:37;;;;;;;436.92;32.22;;;5.10;99.90;;;;;;5041799;28;20038;-66
2022/12/21 02:29:56;;;;;;;371.25;23.75;;;4.30;99.90;;;;;;5022423;28;20065;-66
2022/12/21 02:32:28;;;;;;;445.20;26.10;;;4.30;99.90;;;;;;4969481;28;20544;-66
2022/12/21 02:34:59;;;;;;;249.27;17.23;;;3.40;99.90;;;;;;4970324;28;20137;-65
2022/12/21 02:37:50;;;;;;;248.25;16.83;;;3.20;99.90;;;;;;4997969;28;20083;-65
2022/12/21 02:40:38;;;;;;;91.57;11.40;;;3.30;99.90;;;;;;5032089;28;20034;-65
2022/12/21 02:46:17;;;;;;;407.70;22.33;;;3.50;99.90;;;;;;5026261;28;20088;-65
2022/12/21 02:49:11;;;;;;;296.50;21.40;;;4.90;99.90;;;;;;5018609;28;20038;-65
2022/12/21 02:51:48;;;;;;;312.63;20.42;;;4.90;99.90;;;;;;5013259;28;20380;-65
2022/12/21 02:54:15;;;;;;;102.18;13.30;;;4.90;99.90;;;;;;5024287;28;20037;-65
2022/12/21 02:56:41;;;;;;;149.27;11.93;;;4.20;99.90;;;;;;5029009;28;20049;-65
2022/12/21 02:59:08;;;;;;;145.88;12.82;;;4.90;99.90;;;;;;5042052;28;20045;-65
2022/12/21 03:02:03;;;;;;;123.35;11.32;;;3.80;99.90;;;;;;5028972;28;20380;-65
2022/12/21 03:05:04;;;;;;;234.38;17.55;;;3.50;99.90;;;;;;5030967;28;20055;-65
2022/12/21 03:08:01;;;;;;;137.18;14.10;;;4.30;99.90;;;;;;5024848;28;20165;-65
2022/12/21 03:10:47;;;;;;;194.63;18.27;;;3.70;99.90;;;;;;5017125;28;20049;-65
2022/12/21 03:13:25;;;;;;;;;;;4.20;99.90;;;;;;5031387;28;20089;-65
2022/12/21 03:16:21;;;;;;;54.80;12.85;;;4.70;99.90;;;;;;5021619;28;19952;-65
2022/12/21 03:19:10;;;;;;;80.68;15.38;;;3.20;99.90;;;;;;5028777;28;20116;-65
2022/12/21 03:21:56;;;;;;;82.40;15.98;;;5.10;99.90;;;;;;5027571;28;20073;-65
2022/12/21 03:24:34;;;;;;;131.40;18.48;;;4.20;99.90;;;;;;5031065;28;20065;-65
2022/12/21 03:27:06;;;;;;;385.80;29.30;;;4.40;99.90;;;;;;5029037;28;20486;-65
2022/12/21 03:29:43;;;;;;;591.75;37.85;;;3.50;99.90;;;;;;5028419;28;20103;-65
2022/12/21 03:32:13;;;;;;;450.42;35.85;;;3.60;99.90;;;;;;5026687;28;20041;-65
2022/12/21 03:34:45;;;;;;;447.55;36.92;;;5.60;99.90;;;;;;5028987;28;20123;-65
2022/12/21 03:37:26;;;;;;;419.08;34.60;;;5.50;99.90;;;;;;5028303;28;20463;-65
2022/12/21 03:40:00;;;;;;;230.25;15.60;;;3.70;99.90;;;;;;5025025;28;20063;-65
2022/12/21 03:42:33;;;;;;;162.30;14.80;;;5.30;99.90;;;;;;5025699;28;20040;-65
2022/12/21 03:45:06;;;;;;;127.78;14.60;;;3.50;99.90;;;;;;5030221;28;20126;-65
2022/12/21 03:47:58;;;;;;;481.42;38.35;;;5.00;99.90;;;;;;5027253;28;20172;-65
2022/12/21 03:50:28;;;;;;;516.72;40.95;;;5.20;99.90;;;;;;5025293;28;20115;-65
2022/12/21 03:53:15;;;;;;;546.05;41.58;;;3.80;99.90;;;;;;5030670;28;20037;-65
2022/12/21 03:55:43;;;;;;;146.48;15.82;;;5.40;99.90;;;;;;5020966;28;20069;-65
2022/12/21 03:58:10;;;;;;;158.07;16.42;;;5.50;99.90;;;;;;5021700;28;20053;-65
2022/12/21 04:01:03;;;;;;;206.02;19.08;;;4.20;99.90;;;;;;5027728;28;20080;-65
2022/12/21 04:03:35;;;;;;;125.55;13.75;;;3.80;99.90;;;;;;5021061;28;20046;-65
2022/12/21 04:06:09;;;;;;;340.45;29.15;;;4.70;99.90;;;;;;5027384;28;20699;-65
2022/12/21 04:08:37;;;;;;;258.98;25.90;;;3.80;99.90;;;;;;5022927;28;20614;-65
2022/12/21 04:11:02;;;;;;;271.95;25.27;;;3.20;99.90;;;;;;5022169;28;20075;-65
2022/12/21 04:13:28;;;;;;;332.80;30.67;;;3.20;99.90;;;;;;5030274;28;20108;-65
2022/12/21 04:16:05;;;;;;;101.15;11.63;;;3.60;99.90;;;;;;5030832;28;20033;-65
2022/12/21 04:21:17;;;;;;;127.57;14.93;;;5.40;99.90;;;;;;5029908;28;20064;-65
2022/12/21 04:29:12;;;;;;;289.50;29.52;;;3.80;99.90;;;;;;5021075;28;20447;-65
2022/12/21 04:31:38;;;;;;;288.67;26.60;;;3.60;99.90;;;;;;5030275;28;20061;-65
2022/12/21 04:34:04;;;;;;;255.70;25.48;;;5.20;99.90;;;;;;5028699;28;20411;-65
2022/12/21 04:39:13;;;;;;;72.72;13.63;;;5.30;99.90;;;;;;5023419;28;20113;-65
2022/12/21 04:41:39;;;;;;;80.22;14.07;;;5.30;99.90;;;;;;5015571;28;20177;-65
2022/12/21 04:44:05;;;;;;;93.97;14.55;;;5.30;99.90;;;;;;5026383;28;20117;-65
2022/12/21 04:46:30;;;;;;;339.70;32.53;;;3.40;99.90;;;;;;5026739;28;20037;-65
2022/12/21 04:48:56;;;;;;;441.20;37.67;;;4.00;99.90;;;;;;5019971;28;20040;-65
2022/12/21 04:51:23;;;;;;;540.63;42.30;;;3.10;99.90;;;;;;5026226;28;20043;-65
2022/12/21 04:53:50;;;;;;;552.17;44.80;;;3.30;99.90;;;;;;5026574;28;20054;-65
2022/12/21 04:56:16;;;;;;;1976.50;165.30;;;5.40;99.90;;;;;;5028464;28;20124;-65
2022/12/21 04:58:42;;;;;;;536.00;45.25;;;3.40;99.90;;;;;;5026862;28;20041;-65
2022/12/21 05:01:16;;;;;;;187.70;22.52;;;3.80;99.90;;;;;;5029816;28;20060;-65
2022/12/21 05:03:42;;;;;;;269.60;27.75;;;4.70;99.90;;;;;;5029890;28;20042;-65
2022/12/21 05:06:09;;;;;;;479.25;43.55;;;3.80;99.90;;;;;;5032321;28;20053;-65
2022/12/21 05:08:35;;;;;;;491.45;44.08;;;4.90;99.90;;;;;;5024400;28;20422;-65
2022/12/21 05:11:07;;;;;;;617.70;55.25;;;4.90;99.90;;;;;;5031866;28;20064;-65
2022/12/21 05:13:33;;;;;;;544.55;48.38;;;6.00;99.90;;;;;;5032413;28;20045;-65
2022/12/21 05:16:07;;;;;;;344.60;30.92;;;5.30;99.90;;;;;;5032466;28;20099;-65
2022/12/21 05:18:33;;;;;;;257.85;25.38;;;5.10;99.90;;;;;;5028161;28;20048;-65
2022/12/21 05:20:59;;;;;;;367.73;26.73;;;3.80;99.90;;;;;;5030208;28;20046;-65
2022/12/21 05:23:24;;;;;;;267.63;23.40;;;4.10;99.90;;;;;;5029478;28;20462;-65
2022/12/21 05:25:50;;;;;;;563.60;43.10;;;5.90;99.90;;;;;;5033586;28;20407;-65
2022/12/21 05:28:15;;;;;;;495.80;42.60;;;5.00;99.90;;;;;;5031928;28;20094;-65
2022/12/21 05:30:41;;;;;;;457.85;43.78;;;5.40;99.90;;;;;;5031899;28;20044;-65
2022/12/21 05:33:06;;;;;;;505.58;44.47;;;5.10;99.90;;;;;;5027513;28;20037;-65
2022/12/21 05:35:32;;;;;;;249.90;25.80;;;5.20;99.90;;;;;;5029904;28;20088;-65
2022/12/21 05:37:58;;;;;;;155.43;22.85;;;4.10;99.90;;;;;;5029739;28;20400;-65
2022/12/21 05:40:23;;;;;;;143.15;20.58;;;3.60;99.90;;;;;;5027528;28;20044;-65
2022/12/21 05:42:49;;;;;;;112.47;19.92;;;4.90;99.90;;;;;;5026929;28;20046;-65
2022/12/21 05:45:14;;;;;;;273.50;31.38;;;4.90;99.90;;;;;;5019975;28;20398;-65
2022/12/21 05:47:40;;;;;;;247.93;31.67;;;5.50;99.90;;;;;;5029133;28;20044;-65
2022/12/21 05:50:06;;;;;;;264.38;32.92;;;3.50;99.90;;;;;;5023890;28;20509;-65
2022/12/21 05:52:32;;;;;;;358.98;36.67;;;5.90;99.90;;;;;;5028029;28;20037;-65
2022/12/21 05:54:58;;;;;;;175.93;20.95;;;4.30;99.90;;;;;;5033219;28;20030;-65
2022/12/21 05:57:23;;;;;;;160.05;21.88;;;4.60;99.90;;;;;;5032576;28;20500;-65
2022/12/21 05:59:49;;;;;;;160.25;20.00;;;3.40;99.90;;;;;;5031121;28;20037;-65
2022/12/21 06:02:14;;;;;;;236.65;22.70;;;5.70;99.90;;;;;;5026655;28;20037;-65
2022/12/21 06:04:40;;;;;;;419.48;34.95;;;3.60;99.90;;;;;;5032093;28;20038;-65
2022/12/21 06:07:05;;;;;;;553.20;45.17;;;4.80;99.90;;;;;;5028931;28;20076;-65
2022/12/21 06:09:31;;;;;;;674.85;54.38;;;3.60;99.90;;;;;;5027823;28;20033;-65
2022/12/21 06:11:56;;;;;;;523.38;47.15;;;4.40;99.90;;;;;;5032426;28;20057;-65
2022/12/21 06:14:22;;;;;;;588.10;51.50;;;5.60;99.90;;;;;;5032119;28;20387;-65
2022/12/21 06:16:48;;;;;;;289.08;26.85;;;3.80;99.90;;;;;;5023199;28;20041;-65
2022/12/21 06:19:13;;;;;;;364.10;32.88;;;4.50;99.90;;;;;;5031777;28;20045;-65
2022/12/21 06:21:39;;;;;;;360.42;32.88;;;6.30;99.90;;;;;;5033105;28;20087;-65
2022/12/21 06:24:05;;;;;;;256.63;27.40;;;6.20;99.90;;;;;;5030761;28;20045;-65
2022/12/21 06:26:30;;;;;;;545.40;44.78;;;4.20;99.90;;;;;;5032125;28;20495;-65
2022/12/21 06:28:56;;;;;;;542.50;40.80;;;4.10;99.90;;;;;;5024158;28;20037;-65
2022/12/21 06:31:23;;;;;;;531.10;40.80;;;6.40;99.90;;;;;;5031879;28;20060;-65
2022/12/21 06:33:49;;;;;;;485.98;34.50;;;5.10;99.90;;;;;;5028861;28;20107;-65
2022/12/21 06:36:15;;;;;;;380.33;27.27;;;4.50;99.90;;;;;;5024813;28;20037;-65
2022/12/21 06:38:40;;;;;;;379.50;31.02;;;4.00;99.90;;;;;;5024380;28;20099;-64
2022/12/21 06:41:09;;;;;;;265.85;21.50;;;4.40;99.90;;;;;;5028471;28;20509;-65
2022/12/21 06:43:36;;;;;;;325.98;21.65;;;6.40;99.90;;;;;;5025544;28;20085;-67
2022/12/21 06:46:08;;;;;;;482.17;34.67;;;4.30;99.90;;;;;;5024987;28;20051;-65
2022/12/21 06:48:35;;;;;;;510.25;36.13;;;4.90;99.90;;;;;;5020108;28;20033;-65
2022/12/21 06:51:03;;;;;;;583.08;43.45;;;5.30;99.90;;;;;;5025163;28;20067;-65
2022/12/21 06:53:31;;;;;;;370.30;35.60;;;4.40;99.90;;;;;;5023754;28;20045;-65
2022/12/21 06:56:08;;;;;;;67.82;18.10;;;6.10;99.90;;;;;;5029657;28;20061;-65
2022/12/21 06:58:35;;;;;;;59.83;20.10;;;5.20;99.90;;;;;;5022022;28;20046;-65
2022/12/21 07:01:12;;;;;;;84.90;18.90;;;6.80;99.90;;;;;;5025986;28;20224;-65
2022/12/21 07:03:39;;;;;;;88.68;19.92;;;6.90;99.90;;;;;;5030653;28;20045;-66
2022/12/21 07:06:05;;;;;;;141.45;23.02;;;4.60;99.90;;;;;;5029745;28;20025;-65
2022/12/21 07:08:31;;;;;;;270.77;31.08;;;5.40;99.90;;;;;;5032043;28;20037;-65
2022/12/21 07:10:59;;;;;;;281.23;33.47;;;5.80;99.90;;;;;;5026740;28;20084;-67
2022/12/21 07:13:25;;;;;;;353.67;39.03;;;7.00;99.90;;;;;;5025155;28;20061;-66
2022/12/21 07:15:51;;;;;;;98.53;22.95;;;7.10;99.90;;;;;;5022015;28;20080;-66
2022/12/21 07:18:17;;;;;;;72.55;23.27;;;4.70;99.90;;;;;;5031719;28;20505;-66
2022/12/21 07:20:42;;;;;;;41.17;19.67;;;4.90;99.90;;;;;;5028735;28;20032;-66
2022/12/21 07:23:08;;;;;;;48.03;19.40;;;6.40;99.90;;;;;;5031863;28;20068;-66
2022/12/21 07:25:34;;;;;;;74.40;21.80;;;5.20;99.90;;;;;;5030782;28;20506;-66
2022/12/21 07:27:59;;;;;;;52.53;20.98;;;6.60;99.90;;;;;;5030943;28;20041;-66
2022/12/21 07:30:25;;;;;;;50.50;20.15;;;5.10;99.90;;;;;;5030527;28;20502;-66
2022/12/21 07:32:54;;;;;;;53.53;20.42;;;5.10;99.90;;;;;;5030347;28;20052;-66
2022/12/21 07:35:23;;;;;;;47.53;16.48;;;6.20;99.90;;;;;;5032199;28;20451;-66
2022/12/21 07:37:50;;;;;;;30.75;13.52;;;7.40;99.90;;;;;;5031684;28;20047;-66
2022/12/21 07:40:15;;;;;;;37.88;13.95;;;5.00;99.90;;;;;;5031651;28;20037;-66
2022/12/21 07:42:42;;;;;;;27.40;11.10;;;5.50;99.90;;;;;;5031212;28;20056;-66
2022/12/21 07:45:09;;;;;;;43.22;14.65;;;7.30;99.90;;;;;;5026970;28;20034;-66
2022/12/21 07:47:35;;;;;;;45.63;14.65;;;5.90;99.90;;;;;;5028290;28;20041;-66
2022/12/21 07:50:02;;;;;;;51.35;15.30;;;6.10;99.90;;;;;;5031075;28;20040;-66
2022/12/21 07:52:27;;;;;;;48.28;13.65;;;5.50;99.90;;;;;;5030864;28;20095;-66
2022/12/21 07:54:53;;;;;;;28.98;11.00;;;5.00;99.90;;;;;;5031692;28;20052;-66
2022/12/21 07:57:18;;;;;;;33.60;9.18;;;6.70;99.90;;;;;;5031582;28;20033;-66
2022/12/21 07:59:44;;;;;;;25.92;9.20;;;6.90;99.90;;;;;;5032029;28;20115;-66
2022/12/21 08:02:09;;;;;;;39.83;9.75;;;6.30;99.90;;;;;;5031820;28;20108;-66
2022/12/21 08:04:35;;;;;;;38.05;9.50;;;7.30;99.90;;;;;;5020525;28;20045;-66
2022/12/21 08:07:01;;;;;;;33.33;9.98;;;6.60;99.90;;;;;;5027676;28;20483;-66
2022/12/21 08:09:26;;;;;;;40.08;10.60;;;6.30;99.90;;;;;;5029706;28;20103;-66
2022/12/21 08:11:52;;;;;;;47.40;11.80;;;6.30;99.90;;;;;;5027369;28;20046;-66
2022/12/21 08:14:17;;;;;;;43.00;11.35;;;5.60;99.90;;;;;;5030844;28;20064;-66
2022/12/21 08:16:43;;;;;;;39.97;9.55;;;5.90;99.90;;;;;;5030831;28;20052;-66
2022/12/21 08:19:09;;;;;;;43.70;9.18;;;7.80;99.90;;;;;;5030987;28;20030;-66
2022/12/21 08:21:34;;;;;;;34.42;9.77;;;5.30;99.90;;;;;;5030526;28;20048;-66
2022/12/21 08:24:00;;;;;;;40.40;10.32;;;7.80;99.90;;;;;;5029643;28;20048;-66
2022/12/21 08:26:25;;;;;;;40.05;10.73;;;6.30;99.90;;;;;;5028924;28;20069;-66
2022/12/21 08:28:51;;;;;;;39.60;11.13;;;5.90;99.90;;;;;;5031020;28;20060;-66
2022/12/21 08:31:19;;;;;;;48.08;12.40;;;6.20;99.90;;;;;;5031370;28;20040;-66
2022/12/21 08:33:45;;;;;;;51.95;13.45;;;5.80;99.90;;;;;;5030924;28;20124;-66
2022/12/21 08:36:12;;;;;;;46.85;12.07;;;6.80;99.90;;;;;;5032677;28;20033;-66
2022/12/21 08:38:38;;;;;;;39.30;10.40;;;6.00;99.90;;;;;;5023404;28;20045;-66
2022/12/21 08:41:05;;;;;;;30.52;9.23;;;6.00;99.90;;;;;;5030344;28;20116;-66
2022/12/21 08:43:33;;;;;;;30.42;10.45;;;8.20;99.90;;;;;;5020704;28;20080;-66
2022/12/21 08:46:03;;;;;;;43.08;13.13;;;6.00;99.90;;;;;;5031340;28;20092;-66
2022/12/21 08:48:29;;;;;;;45.30;12.52;;;8.00;99.90;;;;;;5023634;28;20033;-66
2022/12/21 08:50:54;;;;;;;46.47;14.00;;;7.70;99.90;;;;;;5028016;28;20562;-66
2022/12/21 08:53:20;;;;;;;45.85;13.90;;;6.10;99.90;;;;;;5033828;28;20124;-66
2022/12/21 08:55:47;;;;;;;36.25;12.30;;;7.80;99.90;;;;;;5033733;28;20453;-66
2022/12/21 08:58:13;;;;;;;42.38;11.82;;;5.90;99.90;;;;;;5033682;28;20414;-66
2022/12/21 09:00:38;;;;;;;33.40;11.85;;;8.40;99.90;;;;;;5033182;28;20042;-66
2022/12/21 09:03:06;;;;;;;27.40;11.45;;;6.30;99.90;;;;;;5033084;28;20045;-67
2022/12/21 09:05:32;;;;;;;32.22;10.80;;;7.50;99.90;;;;;;5016815;28;20379;-66
2022/12/21 09:07:58;;;;;;;35.97;13.52;;;6.10;99.90;;;;;;5033792;28;20034;-66
2022/12/21 09:10:24;;;;;;;39.47;14.27;;;6.00;99.90;;;;;;5034077;28;20061;-66
2022/12/21 09:12:50;;;;;;;30.67;13.25;;;7.70;99.90;;;;;;5033652;28;20131;-67
2022/12/21 09:15:15;;;;;;;39.97;15.90;;;6.30;99.90;;;;;;5033273;28;20038;-67
2022/12/21 09:17:41;;;;;;;40.92;13.75;;;8.50;99.90;;;;;;5034219;28;20076;-67
2022/12/21 09:20:07;;;;;;;28.42;11.35;;;8.00;99.90;;;;;;5034742;28;20391;-66
2022/12/21 09:22:33;;;;;;;29.65;10.38;;;7.20;99.90;;;;;;5031821;28;20525;-67
2022/12/21 09:24:58;;;;;;;25.60;10.63;;;8.80;99.90;;;;;;5032778;28;20065;-67
2022/12/21 09:27:24;;;;;;;31.83;13.80;;;8.50;99.90;;;;;;5033593;28;20025;-67
2022/12/21 09:29:49;;;;;;;34.63;14.55;;;8.60;99.90;;;;;;5032532;28;20088;-67
2022/12/21 09:32:15;;;;;;;29.05;14.02;;;6.60;99.90;;;;;;5014154;28;20038;-67
2022/12/21 09:34:41;;;;;;;27.73;13.70;;;6.70;99.90;;;;;;5033532;28;20052;-67
2022/12/21 09:37:07;;;;;;;25.42;12.52;;;6.60;99.90;;;;;;5033411;28;20033;-67
2022/12/21 09:39:32;;;;;;;32.65;14.32;;;7.40;99.90;;;;;;5027898;28;20042;-67
2022/12/21 09:42:26;;;;;;;29.92;13.68;;;9.00;99.90;;;;;;5030507;28;20038;-67
2022/12/21 09:45:03;;;;;;;28.67;14.95;;;9.10;99.90;;;;;;5033587;28;20492;-67
2022/12/21 09:47:49;;;;;;;36.35;17.08;;;7.30;99.90;;;;;;5048473;28;20501;-67
2022/12/21 09:50:22;;;;;;;29.40;14.55;;;8.80;99.90;;;;;;5033167;28;20084;-67
2022/12/21 09:52:56;;;;;;;29.70;15.13;;;6.80;99.90;;;;;;5031876;28;20091;-67
2022/12/21 09:55:25;;;;;;;32.38;15.40;;;9.10;99.90;;;;;;5014235;28;20092;-66
2022/12/21 09:57:52;;;;;;;21.25;12.18;;;7.10;99.90;;;;;;5012968;28;20492;-67
2022/12/21 10:00:24;;;;;;;25.75;13.05;;;8.40;99.90;;;;;;5020618;28;20483;-67
2022/12/21 10:03:17;;;;;;;35.45;13.93;;;9.10;99.90;;;;;;5027248;28;20025;-67
2022/12/21 10:06:09;;;;;;;31.85;15.93;;;6.90;99.90;;;;;;5019815;28;20073;-67
2022/12/21 10:09:22;;;;;;;35.60;15.70;;;9.20;99.90;;;;;;5031174;28;20399;-67
2022/12/21 10:12:25;;;;;;;28.33;15.77;;;7.00;99.90;;;;;;4967063;28;20134;-67
2022/12/21 10:15:09;;;;;;;26.83;13.93;;;7.20;99.90;;;;;;4955223;28;20524;-67
2022/12/21 10:18:02;;;;;;;29.83;12.95;;;8.70;99.90;;;;;;5026492;28;20048;-67
2022/12/21 10:20:46;;;;;;;29.40;14.48;;;8.60;99.90;;;;;;5032205;28;20076;-67
2022/12/21 10:23:29;;;;;;;30.52;13.98;;;8.30;99.90;;;;;;5031983;28;20045;-67
2022/12/21 10:25:57;;;;;;;36.05;14.80;;;9.40;99.90;;;;;;5032203;28;20037;-67
2022/12/21 10:28:28;;;;;;;32.60;16.20;;;7.50;99.90;;;;;;5032396;28;20033;-67
2022/12/21 10:31:04;;;;;;;33.17;15.93;;;8.70;99.90;;;;;;5031790;28;20386;-67
2022/12/21 10:33:30;;;;;;;38.97;16.73;;;9.40;99.90;;;;;;5032848;28;20065;-67
2022/12/21 10:36:02;;;;;;;33.97;15.43;;;7.80;99.90;;;;;;5032331;28;20034;-67
2022/12/21 10:38:31;;;;;;;26.45;14.45;;;8.10;99.90;;;;;;5029897;28;20029;-67
2022/12/21 10:40:58;;;;;;;27.13;14.13;;;8.20;99.90;;;;;;5017167;28;20548;-67
2022/12/21 10:43:24;;;;;;;27.10;14.20;;;8.90;99.90;;;;;;5019829;28;20049;-67
2022/12/21 10:45:49;;;;;;;28.98;14.45;;;9.20;99.90;;;;;;5030353;28;20483;-67
2022/12/21 10:48:15;;;;;;;28.75;13.52;;;8.40;99.90;;;;;;5018508;28;20034;-68
2022/12/21 10:50:45;;;;;;;28.60;15.25;;;8.50;99.90;;;;;;5030209;28;20045;-67
2022/12/21 10:53:24;;;;;;;36.10;15.80;;;8.60;99.90;;;;;;5031014;28;20037;-67
2022/12/21 10:55:54;;;;;;;32.60;14.40;;;10.10;99.90;;;;;;5031959;28;20045;-67
2022/12/21 10:58:33;;;;;;;29.50;15.45;;;8.50;99.90;;;;;;5031587;28;20056;-67
2022/12/21 11:01:05;;;;;;;33.17;14.35;;;8.60;99.90;;;;;;5010742;28;20057;-67
2022/12/21 11:03:34;;;;;;;27.75;14.82;;;9.70;99.90;;;;;;5028333;28;20077;-67
2022/12/21 11:06:17;;;;;;;29.35;13.43;;;9.90;99.90;;;;;;5019758;28;20041;-67
2022/12/21 11:08:48;;;;;;;31.05;14.95;;;9.60;99.90;;;;;;5011636;28;20089;-67
2022/12/21 11:11:35;;;;;;;31.13;15.93;;;9.50;99.90;;;;;;5020363;28;20073;-67
2022/12/21 11:14:02;;;;;;;31.83;14.15;;;9.50;99.90;;;;;;5030439;28;20076;-67
2022/12/21 11:16:30;;;;;;;22.50;14.25;;;9.30;99.90;;;;;;5031950;28;20037;-67
2022/12/21 11:19:01;;;;;;;21.88;11.02;;;8.40;99.90;;;;;;5020724;28;20041;-67
2022/12/21 11:21:45;;;;;;;22.55;11.02;;;9.40;99.90;;;;;;5025991;28;20380;-67
2022/12/21 11:24:13;;;;;;;27.10;14.75;;;8.60;99.90;;;;;;5021731;28;20049;-67
2022/12/21 11:26:45;;;;;;;21.58;11.68;;;8.40;99.90;;;;;;5030588;28;20049;-67
2022/12/21 11:29:27;;;;;;;34.05;16.20;;;8.30;99.90;;;;;;5032337;28;20041;-67
2022/12/21 11:31:55;;;;;;;31.42;17.08;;;9.30;99.90;;;;;;5032293;28;20034;-67
2022/12/21 11:34:38;;;;;;;31.33;15.00;;;9.10;99.90;;;;;;5030121;28;20097;-67
2022/12/21 11:37:20;;;;;;;26.42;11.85;;;8.10;99.90;;;;;;5030633;28;20053;-67
2022/12/21 11:39:45;;;;;;;26.75;13.60;;;8.80;99.90;;;;;;5027380;28;20491;-67
2022/12/21 11:42:23;;;;;;;33.65;15.15;;;9.40;99.90;;;;;;5028953;28;20048;-67
2022/12/21 11:44:51;;;;;;;29.52;14.55;;;8.70;99.90;;;;;;5032243;28;20230;-67
2022/12/21 11:47:28;;;;;;;37.42;15.90;;;8.10;99.90;;;;;;5018854;28;20029;-68
2022/12/21 11:50:33;;;;;;;34.25;16.50;;;8.10;99.90;;;;;;5030336;28;20513;-68
2022/12/21 11:53:38;;;;;;;29.92;14.60;;;8.00;99.90;;;;;;5024268;28;20084;-67
2022/12/21 11:56:17;;;;;;;36.55;15.32;;;7.90;99.90;;;;;;5005096;28;20042;-67
2022/12/21 11:58:57;;;;;;;29.52;13.73;;;8.40;99.90;;;;;;5016516;28;20065;-67
2022/12/21 12:01:50;;;;;;;37.08;15.82;;;8.10;99.90;;;;;;5031918;28;20037;-67
2022/12/21 12:04:43;;;;;;;36.05;17.15;;;8.70;99.90;;;;;;5028764;28;20116;-67
2022/12/21 12:07:16;;;;;;;44.17;20.23;;;9.40;99.90;;;;;;5029995;28;20052;-67
2022/12/21 12:10:13;;;;;;;39.45;16.13;;;8.70;99.90;;;;;;5025509;28;20110;-67
2022/12/21 12:12:57;;;;;;;45.58;18.27;;;8.90;99.90;;;;;;5033779;28;20088;-67
2022/12/21 12:15:42;;;;;;;37.33;17.08;;;8.80;99.90;;;;;;5035850;28;20045;-67
2022/12/21 12:18:27;;;;;;;29.55;15.18;;;8.50;99.90;;;;;;5034757;28;20072;-66
2022/12/21 12:21:11;;;;;;;29.25;12.23;;;9.00;99.90;;;;;;5033576;28;20120;-67
2022/12/21 12:24:18;;;;;;;33.35;15.65;;;10.10;99.90;;;;;;5035660;28;20099;-67
2022/12/21 12:26:55;;;;;;;54.78;22.25;;;9.90;99.90;;;;;;5035001;28;20529;-67
2022/12/21 12:29:46;;;;;;;45.38;19.38;;;10.20;99.90;;;;;;5035632;28;20033;-67
2022/12/21 12:32:31;;;;;;;32.83;17.67;;;10.20;99.90;;;;;;5031258;28;20041;-67
2022/12/21 12:35:32;;;;;;;47.28;22.73;;;9.10;99.90;;;;;;5035851;28;20045;-67
2022/12/21 12:38:10;;;;;;;28.83;15.20;;;9.80;99.90;;;;;;5035166;28;20490;-67
2022/12/21 12:40:51;;;;;;;38.85;15.27;;;9.00;99.90;;;;;;5033411;28;20152;-67
2022/12/21 12:43:24;;;;;;;34.55;16.45;;;9.80;99.90;;;;;;5031298;28;20068;-67
2022/12/21 12:46:07;;;;;;;29.95;16.73;;;9.00;99.90;;;;;;5033415;28;20033;-67
2022/12/21 12:48:42;;;;;;;35.80;16.08;;;9.40;99.90;;;;;;5027631;28;20034;-67
2022/12/21 12:51:24;;;;;;;32.78;14.27;;;9.30;99.90;;;;;;5035248;28;20048;-67
2022/12/21 12:53:49;;;;;;;44.70;17.80;;;9.40;99.90;;;;;;5034956;28;20510;-67
2022/12/21 12:56:50;;;;;;;25.23;13.30;;;8.70;99.90;;;;;;5035044;28;20039;-67
2022/12/21 12:59:21;;;;;;;30.13;12.65;;;8.70;99.90;;;;;;4976039;28;20045;-67
2022/12/21 13:02:06;;;;;;;36.40;15.10;;;8.80;99.90;;;;;;5015332;28;20121;-67
2022/12/21 13:04:47;;;;;;;24.50;12.32;;;9.00;99.90;;;;;;5031494;28;20049;-67
2022/12/21 13:07:23;;;;;;;38.40;15.45;;;9.40;99.90;;;;;;5033681;28;20048;-67
2022/12/21 13:10:06;;;;;;;30.73;13.82;;;10.10;99.90;;;;;;5033989;28;20037;-67
2022/12/21 13:12:34;;;;;;;36.63;13.98;;;8.70;99.90;;;;;;5034212;28;20057;-67